createdAt,value
2023-03-05T00:02:24.564Z,58.80
2023-03-05T00:04:51.319Z,58.66
2023-03-05T00:07:17.944Z,58.94
2023-03-05T00:09:44.611Z,58.75
2023-03-05T00:12:11.288Z,58.97
2023-03-05T00:14:38.010Z,58.92
2023-03-05T00:17:04.719Z,59.04
2023-03-05T00:19:31.317Z,59.09
2023-03-05T00:21:58.072Z,59.00
2023-03-05T00:24:24.657Z,59.00
2023-03-05T00:26:51.378Z,58.97
2023-03-05T00:29:19.022Z,59.17
2023-03-05T00:31:46.305Z,58.90
2023-03-05T00:34:15.357Z,59.03
2023-03-05T00:36:43.956Z,59.04
2023-03-05T00:39:12.240Z,58.97
2023-03-05T00:41:39.264Z,59.13
2023-03-05T00:44:06.276Z,59.07
2023-03-05T00:46:33.262Z,58.93
2023-03-05T00:48:59.966Z,59.26
2023-03-05T00:51:26.622Z,59.04
2023-03-05T00:53:53.527Z,59.13
2023-03-05T00:56:20.560Z,59.01
2023-03-05T00:58:47.627Z,59.08
2023-03-05T01:01:14.686Z,59.37
2023-03-05T01:03:41.671Z,59.22
2023-03-05T01:06:11.735Z,59.21
2023-03-05T01:08:39.249Z,59.53
2023-03-05T01:11:06.932Z,59.40
2023-03-05T01:13:33.796Z,59.47
2023-03-05T01:16:01.091Z,59.27
2023-03-05T01:18:27.820Z,59.56
2023-03-05T01:20:54.484Z,59.61
2023-03-05T01:23:21.169Z,59.92
2023-03-05T01:25:57.358Z,60.15
2023-03-05T01:28:24.515Z,60.33
2023-03-05T01:30:51.313Z,60.32
2023-03-05T01:33:18.338Z,60.48
2023-03-05T01:35:49.151Z,60.48
2023-03-05T01:38:16.736Z,61.27
2023-03-05T01:40:43.966Z,61.39
2023-03-05T01:43:12.193Z,61.68
2023-03-05T01:46:00.107Z,61.99
2023-03-05T01:48:27.639Z,62.33
2023-03-05T01:50:54.521Z,62.31
2023-03-05T01:53:21.218Z,62.28
2023-03-05T01:55:48.048Z,62.19
2023-03-05T01:58:14.856Z,62.29
2023-03-05T02:00:46.182Z,62.05
2023-03-05T02:03:13.706Z,62.05
2023-03-05T02:05:43.351Z,61.58
2023-03-05T02:08:12.526Z,61.71
2023-03-05T02:10:45.122Z,62.38
2023-03-05T02:13:15.238Z,61.90
2023-03-05T02:15:42.628Z,61.98
2023-03-05T02:18:10.191Z,61.55
2023-03-05T02:20:46.609Z,61.64
2023-03-05T02:23:14.360Z,61.56
2023-03-05T02:25:41.382Z,61.61
2023-03-05T02:28:23.142Z,61.64
2023-03-05T02:30:49.965Z,61.53
2023-03-05T02:33:18.114Z,61.20
2023-03-05T02:35:46.400Z,61.47
2023-03-05T02:38:15.407Z,61.50
2023-03-05T02:40:42.470Z,61.71
2023-03-05T02:43:09.837Z,61.67
2023-03-05T02:45:37.591Z,61.31
2023-03-05T02:48:04.625Z,61.59
2023-03-05T02:50:32.167Z,61.52
2023-03-05T02:52:59.057Z,61.44
2023-03-05T02:55:25.966Z,61.56
2023-03-05T02:57:52.708Z,61.51
2023-03-05T03:00:19.688Z,61.62
2023-03-05T03:02:46.371Z,61.89
2023-03-05T03:05:13.127Z,62.02
2023-03-05T03:07:39.831Z,62.05
2023-03-05T03:10:07.217Z,61.62
2023-03-05T03:12:41.831Z,61.87
2023-03-05T03:15:09.740Z,61.61
2023-03-05T03:17:37.404Z,61.92
2023-03-05T03:20:06.157Z,61.52
2023-03-05T03:22:33.197Z,61.56
2023-03-05T03:25:01.138Z,61.55
2023-03-05T03:27:27.831Z,61.57
2023-03-05T03:29:54.426Z,61.58
2023-03-05T03:32:21.193Z,61.87
2023-03-05T03:34:48.343Z,61.63
2023-03-05T03:37:15.357Z,61.85
2023-03-05T03:39:42.104Z,61.78
2023-03-05T03:42:08.777Z,62.14
2023-03-05T03:44:35.392Z,62.03
2023-03-05T03:47:02.154Z,62.29
2023-03-05T03:49:28.916Z,62.48
2023-03-05T03:51:55.674Z,62.41
2023-03-05T03:54:22.475Z,62.42
2023-03-05T03:56:49.364Z,62.14
2023-03-05T03:59:16.121Z,62.14
2023-03-05T04:01:43.205Z,62.51
2023-03-05T04:04:12.422Z,62.42
2023-03-05T04:06:39.594Z,61.99
2023-03-05T04:09:08.221Z,62.19
2023-03-05T04:11:36.403Z,62.41
2023-03-05T04:14:04.029Z,61.85
2023-03-05T04:16:31.239Z,62.05
2023-03-05T04:18:57.962Z,61.63
2023-03-05T04:21:24.631Z,62.02
2023-03-05T04:23:51.214Z,61.98
2023-03-05T04:26:17.892Z,61.88
2023-03-05T04:28:48.382Z,61.84
2023-03-05T04:31:15.222Z,62.09
2023-03-05T04:33:42.043Z,62.01
2023-03-05T04:36:09.146Z,62.02
2023-03-05T04:38:35.761Z,62.21
2023-03-05T04:41:02.342Z,62.08
2023-03-05T04:43:29.019Z,61.93
2023-03-05T04:45:56.065Z,62.11
2023-03-05T04:48:22.884Z,61.97
2023-03-05T04:50:49.678Z,62.13
2023-03-05T04:53:16.421Z,61.92
2023-03-05T04:55:43.911Z,61.92
2023-03-05T04:58:10.691Z,62.09
2023-03-05T05:00:37.393Z,62.02
2023-03-05T05:03:04.250Z,61.83
2023-03-05T05:05:30.985Z,62.26
2023-03-05T05:07:58.717Z,62.25
2023-03-05T05:10:26.773Z,62.16
2023-03-05T05:12:53.839Z,62.15
2023-03-05T05:15:20.847Z,62.30
2023-03-05T05:17:47.766Z,62.36
2023-03-05T05:20:16.632Z,62.08
2023-03-05T05:22:44.000Z,61.96
2023-03-05T05:25:11.071Z,61.81
2023-03-05T05:27:39.707Z,62.01
2023-03-05T05:30:07.709Z,62.07
2023-03-05T05:32:34.555Z,61.84
2023-03-05T05:35:01.687Z,62.17
2023-03-05T05:37:29.969Z,62.09
2023-03-05T05:39:56.657Z,62.08
2023-03-05T05:42:24.301Z,61.91
2023-03-05T05:44:51.251Z,62.06
2023-03-05T05:47:18.791Z,61.98
2023-03-05T05:49:45.733Z,61.93
2023-03-05T05:52:13.295Z,62.33
2023-03-05T05:54:40.169Z,62.03
2023-03-05T05:57:07.679Z,61.91
2023-03-05T05:59:34.569Z,61.88
2023-03-05T06:02:01.325Z,62.05
2023-03-05T06:04:28.020Z,62.15
2023-03-05T06:06:54.679Z,62.20
2023-03-05T06:09:21.384Z,62.67
2023-03-05T06:11:48.039Z,62.80
2023-03-05T06:14:14.769Z,63.05
2023-03-05T06:16:41.703Z,63.12
2023-03-05T06:19:11.681Z,63.45
2023-03-05T06:21:38.961Z,63.45
2023-03-05T06:24:06.229Z,63.51
2023-03-05T06:26:33.452Z,63.63
2023-03-05T06:29:00.401Z,63.72
2023-03-05T06:31:28.739Z,63.74
2023-03-05T06:33:58.149Z,63.57
2023-03-05T06:36:25.767Z,63.63
2023-03-05T06:38:53.646Z,63.67
2023-03-05T06:41:23.334Z,63.83
2023-03-05T06:43:50.305Z,63.67
2023-03-05T06:46:25.723Z,63.82
2023-03-05T06:48:55.693Z,63.78
2023-03-05T06:51:25.565Z,63.69
2023-03-05T06:53:54.150Z,64.09
2023-03-05T06:56:21.251Z,63.71
2023-03-05T06:58:50.631Z,63.41
2023-03-05T07:01:17.638Z,63.16
2023-03-05T07:03:44.867Z,63.35
2023-03-05T07:06:14.094Z,63.07
2023-03-05T07:08:40.788Z,62.96
2023-03-05T07:11:16.911Z,62.99
2023-03-05T07:13:43.972Z,63.05
2023-03-05T07:16:15.551Z,63.48
2023-03-05T07:18:42.350Z,62.90
2023-03-05T07:21:13.081Z,62.78
2023-03-05T07:23:39.827Z,62.77
2023-03-05T07:26:07.105Z,62.26
2023-03-05T07:28:34.803Z,62.42
2023-03-05T07:31:04.933Z,62.13
2023-03-05T07:33:32.381Z,62.44
2023-03-05T07:35:59.599Z,62.10
2023-03-05T07:38:26.335Z,62.27
2023-03-05T07:40:53.248Z,62.49
2023-03-05T07:43:19.865Z,62.56
2023-03-05T07:45:46.564Z,62.30
2023-03-05T07:48:16.753Z,62.30
2023-03-05T07:50:44.294Z,62.31
2023-03-05T07:53:11.540Z,62.10
2023-03-05T07:55:47.724Z,62.15
2023-03-05T07:58:14.646Z,62.09
2023-03-05T08:00:41.326Z,62.14
2023-03-05T08:03:08.261Z,61.94
2023-03-05T08:05:35.182Z,62.04
2023-03-05T08:08:01.818Z,62.01
2023-03-05T08:10:28.358Z,61.79
2023-03-05T08:12:55.088Z,61.89
2023-03-05T08:15:21.827Z,61.59
2023-03-05T08:17:48.607Z,61.44
2023-03-05T08:20:15.306Z,61.07
2023-03-05T08:22:42.048Z,60.84
2023-03-05T08:25:10.045Z,60.87
2023-03-05T08:27:41.048Z,60.85
2023-03-05T08:30:10.891Z,60.70
2023-03-05T08:32:37.772Z,60.25
2023-03-05T08:35:06.739Z,59.60
2023-03-05T08:37:33.721Z,59.17
2023-03-05T08:40:00.500Z,59.02
2023-03-05T08:42:27.289Z,59.63
2023-03-05T08:44:54.039Z,59.74
2023-03-05T08:47:20.782Z,59.67
2023-03-05T08:49:47.604Z,59.71
2023-03-05T08:52:14.310Z,58.92
2023-03-05T08:54:41.042Z,58.59
2023-03-05T08:57:08.585Z,58.41
2023-03-05T08:59:35.888Z,58.14
2023-03-05T09:02:03.219Z,57.62
2023-03-05T09:04:30.056Z,58.03
2023-03-05T09:06:57.583Z,57.74
2023-03-05T09:09:24.809Z,57.25
2023-03-05T09:11:52.087Z,57.59
2023-03-05T09:14:19.014Z,57.35
2023-03-05T09:16:45.883Z,57.10
2023-03-05T09:19:15.352Z,56.40
2023-03-05T09:21:42.486Z,56.26
2023-03-05T09:24:09.300Z,55.80
2023-03-05T09:26:36.015Z,56.12
2023-03-05T09:29:03.511Z,56.04
2023-03-05T09:31:30.311Z,56.52
2023-03-05T09:33:57.059Z,56.19
2023-03-05T09:36:29.534Z,56.35
2023-03-05T09:38:56.485Z,55.75
2023-03-05T09:41:32.491Z,55.98
2023-03-05T09:43:59.477Z,55.62
2023-03-05T09:46:31.916Z,55.33
2023-03-05T09:49:12.300Z,55.22
2023-03-05T09:51:41.464Z,55.01
2023-03-05T09:54:17.517Z,54.81
2023-03-05T09:57:05.670Z,54.80
2023-03-05T10:00:02.011Z,55.07
2023-03-05T10:02:48.983Z,54.31
2023-03-05T10:05:26.280Z,54.40
2023-03-05T10:08:03.842Z,54.32
2023-03-05T10:10:42.154Z,54.48
2023-03-05T10:13:32.486Z,54.48
2023-03-05T10:16:42.320Z,54.26
2023-03-05T10:19:36.842Z,53.42
2023-03-05T10:22:31.037Z,52.99
2023-03-05T10:25:09.757Z,52.53
2023-03-05T10:27:43.452Z,53.21
2023-03-05T10:30:19.802Z,52.70
2023-03-05T10:32:57.025Z,51.60
2023-03-05T10:35:40.906Z,52.18
2023-03-05T10:38:33.201Z,51.11
2023-03-05T10:41:28.382Z,50.38
2023-03-05T10:44:04.212Z,51.11
2023-03-05T10:46:37.678Z,51.51
2023-03-05T10:49:21.221Z,53.00
2023-03-05T10:51:53.341Z,52.73
2023-03-05T10:54:30.348Z,52.26
2023-03-05T10:57:09.802Z,51.44
2023-03-05T10:59:36.873Z,52.01
2023-03-05T11:02:10.205Z,51.22
2023-03-05T11:04:39.790Z,51.30
2023-03-05T11:07:08.837Z,51.21
2023-03-05T11:09:35.642Z,51.37
2023-03-05T11:12:10.459Z,51.33
2023-03-05T11:14:40.512Z,50.82
2023-03-05T11:17:30.221Z,50.58
2023-03-05T11:19:58.734Z,51.91
2023-03-05T11:22:26.023Z,50.64
2023-03-05T11:25:15.949Z,49.72
2023-03-05T11:27:54.571Z,49.78
2023-03-05T11:30:26.271Z,50.91
2023-03-05T11:33:20.527Z,49.16
2023-03-05T11:35:49.399Z,48.88
2023-03-05T11:38:26.447Z,49.69
2023-03-05T11:40:56.270Z,48.71
2023-03-05T11:43:26.021Z,48.37
2023-03-05T11:46:05.497Z,48.66
2023-03-05T11:48:36.669Z,49.16
2023-03-05T11:51:13.481Z,49.36
2023-03-05T11:53:40.450Z,48.78
2023-03-05T11:56:22.320Z,49.43
2023-03-05T11:59:02.926Z,48.91
2023-03-05T12:01:34.569Z,48.17
2023-03-05T12:04:01.719Z,48.31
2023-03-05T12:06:34.947Z,47.98
2023-03-05T12:09:37.863Z,47.83
2023-03-05T12:12:18.651Z,47.73
2023-03-05T12:15:12.853Z,48.51
2023-03-05T12:17:50.737Z,48.78
2023-03-05T12:20:50.004Z,48.79
2023-03-05T12:23:21.738Z,47.82
2023-03-05T12:25:57.898Z,46.96
2023-03-05T12:28:37.062Z,47.01
2023-03-05T12:31:40.436Z,48.22
2023-03-05T12:34:35.151Z,48.28
2023-03-05T12:37:01.876Z,46.97
2023-03-05T12:39:41.785Z,48.07
2023-03-05T12:42:30.256Z,47.55
2023-03-05T12:45:16.185Z,48.20
2023-03-05T12:47:45.147Z,48.44
2023-03-05T12:50:26.907Z,48.39
2023-03-05T12:52:54.106Z,47.38
2023-03-05T12:55:45.707Z,46.98
2023-03-05T12:58:32.587Z,47.07
2023-03-05T13:01:03.211Z,46.88
2023-03-05T13:03:37.556Z,47.57
2023-03-05T13:06:06.730Z,48.06
2023-03-05T13:08:36.199Z,47.54
2023-03-05T13:11:06.777Z,48.30
2023-03-05T13:13:37.441Z,47.27
2023-03-05T13:16:05.024Z,47.76
2023-03-05T13:18:32.999Z,48.30
2023-03-05T13:21:13.001Z,46.89
2023-03-05T13:24:00.006Z,46.94
2023-03-05T13:26:29.087Z,47.68
2023-03-05T13:29:19.360Z,47.00
2023-03-05T13:31:48.989Z,48.01
2023-03-05T13:34:47.379Z,49.29
2023-03-05T13:37:33.983Z,47.51
2023-03-05T13:40:20.893Z,48.00
2023-03-05T13:42:49.505Z,49.38
2023-03-05T13:45:32.377Z,48.48
2023-03-05T13:48:02.055Z,48.25
2023-03-05T13:50:33.412Z,47.65
2023-03-05T13:53:26.079Z,47.05
2023-03-05T13:55:57.464Z,46.84
2023-03-05T13:58:52.544Z,47.30
2023-03-05T14:01:30.125Z,47.17
2023-03-05T14:04:16.605Z,47.38
2023-03-05T14:07:03.612Z,48.14
2023-03-05T14:09:38.946Z,48.52
2023-03-05T14:12:33.584Z,49.15
2023-03-05T14:15:02.325Z,48.86
2023-03-05T14:17:30.656Z,47.92
2023-03-05T14:20:09.778Z,47.60
2023-03-05T14:22:38.710Z,46.96
2023-03-05T14:25:07.265Z,47.17
2023-03-05T14:27:36.650Z,47.41
2023-03-05T14:30:05.537Z,47.45
2023-03-05T14:32:36.038Z,47.94
2023-03-05T14:35:06.159Z,49.24
2023-03-05T14:37:36.834Z,47.90
2023-03-05T14:40:07.226Z,47.27
2023-03-05T14:42:58.604Z,47.60
2023-03-05T14:45:38.083Z,47.52
2023-03-05T14:48:16.373Z,47.69
2023-03-05T14:50:46.786Z,47.32
2023-03-05T14:53:20.408Z,47.56
2023-03-05T14:55:51.667Z,47.91
2023-03-05T14:58:21.925Z,48.62
2023-03-05T15:00:51.198Z,48.84
2023-03-05T15:03:19.958Z,48.97
2023-03-05T15:05:51.108Z,49.90
2023-03-05T15:08:25.740Z,49.48
2023-03-05T15:10:53.111Z,48.41
2023-03-05T15:13:19.940Z,47.72
2023-03-05T15:15:49.128Z,47.86
2023-03-05T15:18:19.076Z,47.99
2023-03-05T15:20:48.839Z,48.63
2023-03-05T15:23:17.279Z,48.28
2023-03-05T15:25:44.302Z,48.46
2023-03-05T15:28:11.181Z,49.06
2023-03-05T15:30:41.804Z,48.31
2023-03-05T15:33:11.988Z,48.35
2023-03-05T15:35:39.120Z,48.59
2023-03-05T15:38:06.337Z,48.36
2023-03-05T15:40:33.074Z,48.36
2023-03-05T15:43:00.842Z,48.05
2023-03-05T15:45:28.080Z,48.27
2023-03-05T15:47:55.086Z,48.45
2023-03-05T15:50:22.451Z,48.48
2023-03-05T15:52:49.754Z,48.59
2023-03-05T15:55:18.582Z,49.22
2023-03-05T15:57:48.927Z,49.20
2023-03-05T16:00:18.724Z,49.54
2023-03-05T16:02:45.490Z,49.53
2023-03-05T16:05:12.223Z,49.43
2023-03-05T16:07:42.266Z,49.66
2023-03-05T16:10:13.981Z,49.94
2023-03-05T16:12:43.066Z,50.06
2023-03-05T16:15:17.377Z,50.35
2023-03-05T16:17:47.560Z,50.55
2023-03-05T16:20:15.771Z,50.69
2023-03-05T16:22:43.460Z,50.53
2023-03-05T16:25:10.540Z,50.87
2023-03-05T16:27:38.364Z,51.28
2023-03-05T16:30:06.339Z,51.33
2023-03-05T16:32:33.377Z,51.46
2023-03-05T16:35:00.140Z,51.57
2023-03-05T16:37:26.873Z,51.64
2023-03-05T16:39:57.665Z,51.78
2023-03-05T16:42:24.413Z,51.90
2023-03-05T16:44:51.940Z,52.26
2023-03-05T16:47:18.643Z,52.31
2023-03-05T16:49:45.251Z,52.51
2023-03-05T16:52:18.737Z,52.64
2023-03-05T16:54:46.848Z,52.73
2023-03-05T16:57:14.062Z,52.69
2023-03-05T16:59:40.962Z,53.14
2023-03-05T17:02:08.028Z,52.90
2023-03-05T17:04:34.991Z,52.94
2023-03-05T17:07:03.527Z,53.45
2023-03-05T17:09:30.601Z,54.34
2023-03-05T17:11:57.234Z,54.51
2023-03-05T17:14:24.185Z,54.04
2023-03-05T17:16:51.136Z,54.06
2023-03-05T17:19:18.384Z,54.09
2023-03-05T17:21:45.397Z,54.36
2023-03-05T17:24:12.193Z,54.25
2023-03-05T17:26:38.905Z,54.49
2023-03-05T17:29:06.957Z,54.59
2023-03-05T17:31:36.794Z,54.70
2023-03-05T17:34:04.275Z,54.80
2023-03-05T17:36:32.716Z,54.78
2023-03-05T17:38:59.338Z,54.88
2023-03-05T17:41:26.042Z,55.33
2023-03-05T17:43:52.898Z,55.44
2023-03-05T17:46:19.635Z,55.89
2023-03-05T17:48:46.370Z,55.76
2023-03-05T17:51:16.406Z,56.23
2023-03-05T17:53:43.871Z,56.47
2023-03-05T17:56:12.935Z,56.69
2023-03-05T17:58:40.923Z,56.59
2023-03-05T18:01:08.103Z,56.33
2023-03-05T18:03:36.519Z,56.53
2023-03-05T18:06:03.883Z,56.88
2023-03-05T18:08:30.904Z,56.92
2023-03-05T18:10:57.651Z,56.57
2023-03-05T18:13:26.118Z,56.32
2023-03-05T18:15:53.161Z,57.20
2023-03-05T18:18:19.931Z,57.37
2023-03-05T18:20:48.727Z,56.95
2023-03-05T18:23:16.931Z,57.23
2023-03-05T18:25:44.482Z,57.25
2023-03-05T18:28:13.550Z,57.29
2023-03-05T18:30:42.092Z,57.57
2023-03-05T18:33:18.669Z,57.74
2023-03-05T18:35:46.007Z,57.63
2023-03-05T18:38:12.847Z,57.88
2023-03-05T18:40:39.926Z,57.76
2023-03-05T18:43:06.666Z,57.92
2023-03-05T18:45:34.287Z,58.05
2023-03-05T18:48:01.083Z,58.09
2023-03-05T18:50:28.277Z,58.29
2023-03-05T18:52:55.425Z,58.24
2023-03-05T18:55:27.880Z,58.25
2023-03-05T18:57:55.439Z,58.24
2023-03-05T19:00:29.143Z,58.71
2023-03-05T19:02:56.645Z,58.54
2023-03-05T19:05:27.964Z,58.55
2023-03-05T19:07:55.614Z,58.34
2023-03-05T19:10:23.204Z,58.71
2023-03-05T19:13:23.336Z,58.69
2023-03-05T19:15:58.518Z,58.86
2023-03-05T19:18:36.086Z,59.03
2023-03-05T19:21:07.185Z,59.08
2023-03-05T19:23:33.836Z,59.02
2023-03-05T19:26:02.292Z,58.94
2023-03-05T19:28:30.309Z,58.98
2023-03-05T19:30:57.175Z,59.07
2023-03-05T19:33:25.041Z,59.00
2023-03-05T19:35:52.108Z,59.37
2023-03-05T19:38:18.854Z,59.42
2023-03-05T19:40:45.592Z,59.49
2023-03-05T19:43:12.302Z,59.51
2023-03-05T19:45:39.206Z,59.64
2023-03-05T19:48:06.139Z,59.53
2023-03-05T19:50:34.409Z,59.99
2023-03-05T19:53:01.638Z,60.31
2023-03-05T19:55:28.481Z,60.31
2023-03-05T19:57:55.298Z,60.31
2023-03-05T20:00:22.404Z,60.13
2023-03-05T20:02:49.089Z,60.36
2023-03-05T20:05:15.954Z,60.30
2023-03-05T20:07:42.629Z,60.77
2023-03-05T20:10:10.363Z,60.42
2023-03-05T20:12:39.253Z,60.33
2023-03-05T20:15:06.532Z,60.15
2023-03-05T20:17:33.248Z,60.40
2023-03-05T20:20:00.284Z,60.15
2023-03-05T20:22:27.166Z,60.40
2023-03-05T20:24:53.930Z,60.49
2023-03-05T20:27:20.739Z,60.14
2023-03-05T20:29:47.525Z,60.38
2023-03-05T20:32:15.286Z,60.02
2023-03-05T20:34:42.121Z,60.11
2023-03-05T20:37:08.950Z,60.33
2023-03-05T20:39:35.681Z,60.05
2023-03-05T20:42:02.378Z,60.41
2023-03-05T20:44:29.228Z,60.23
2023-03-05T20:47:37.728Z,60.26
2023-03-05T20:50:04.848Z,60.64
2023-03-05T20:52:31.655Z,60.53
2023-03-05T20:54:59.157Z,60.58
2023-03-05T20:57:25.890Z,60.22
2023-03-05T20:59:52.589Z,59.85
2023-03-05T21:02:19.388Z,60.12
2023-03-05T21:04:46.224Z,60.57
2023-03-05T21:07:12.940Z,60.73
2023-03-05T21:09:39.622Z,61.65
2023-03-05T21:12:08.224Z,61.57
2023-03-05T21:14:38.090Z,61.23
2023-03-05T21:17:05.318Z,60.87
2023-03-05T21:19:33.769Z,60.63
2023-03-05T21:22:00.743Z,61.22
2023-03-05T21:25:04.419Z,62.25
2023-03-05T21:27:36.025Z,61.38
2023-03-05T21:30:02.972Z,61.08
2023-03-05T21:32:29.747Z,61.88
2023-03-05T21:34:56.824Z,62.00
2023-03-05T21:37:24.237Z,62.56
2023-03-05T21:39:50.917Z,61.73
2023-03-05T21:42:17.619Z,60.42
2023-03-05T21:44:44.370Z,60.16
2023-03-05T21:47:11.093Z,59.72
2023-03-05T21:49:37.798Z,59.70
2023-03-05T21:52:11.900Z,60.13
2023-03-05T21:54:39.888Z,59.97
2023-03-05T21:57:08.946Z,59.76
2023-03-05T21:59:35.711Z,59.79
2023-03-05T22:02:02.390Z,59.78
2023-03-05T22:04:29.038Z,59.99
2023-03-05T22:06:56.769Z,59.87
2023-03-05T22:09:23.430Z,59.63
2023-03-05T22:11:50.105Z,59.99
2023-03-05T22:14:17.680Z,59.88
2023-03-05T22:16:44.910Z,59.86
2023-03-05T22:19:11.725Z,59.92
2023-03-05T22:21:38.351Z,59.95
2023-03-05T22:24:05.168Z,60.32
2023-03-05T22:26:37.878Z,60.23
2023-03-05T22:29:06.338Z,60.34
2023-03-05T22:31:33.065Z,60.52
2023-03-05T22:33:59.798Z,60.53
2023-03-05T22:36:26.484Z,60.55
2023-03-05T22:38:53.367Z,60.54
2023-03-05T22:41:21.188Z,60.40
2023-03-05T22:43:49.866Z,60.67
2023-03-05T22:46:23.153Z,60.82
2023-03-05T22:48:51.000Z,60.83
2023-03-05T22:51:18.786Z,61.16
2023-03-05T22:53:46.306Z,60.96
2023-03-05T22:56:16.171Z,61.13
2023-03-05T22:58:43.326Z,61.25
2023-03-05T23:01:21.876Z,61.37
2023-03-05T23:04:12.132Z,61.42
2023-03-05T23:06:59.429Z,61.43
2023-03-05T23:09:26.273Z,61.58
2023-03-05T23:11:52.944Z,61.70
2023-03-05T23:14:19.603Z,61.54
2023-03-05T23:16:46.315Z,61.84
2023-03-05T23:19:13.075Z,61.70
2023-03-05T23:21:39.738Z,62.07
2023-03-05T23:24:07.082Z,62.15
2023-03-05T23:26:33.799Z,62.00
2023-03-05T23:29:00.585Z,62.07
2023-03-05T23:31:27.257Z,62.00
2023-03-05T23:33:54.003Z,62.00
2023-03-05T23:36:24.635Z,61.86
2023-03-05T23:38:57.623Z,62.05
2023-03-05T23:41:24.455Z,61.93
2023-03-05T23:43:51.058Z,61.87
2023-03-05T23:46:17.840Z,62.09
2023-03-05T23:48:44.565Z,62.29
2023-03-05T23:51:11.492Z,62.43
2023-03-05T23:53:38.178Z,62.60
2023-03-05T23:56:13.667Z,62.56
2023-03-05T23:58:40.304Z,62.47
